Chattaroy, Washington
Current Conditions -  °F | °C
As of 7:53 PM on Tuesday 25 Nov 2014 (Local Time) from KDEW Reporting Station
Haze Haze  
Wind Chill: 33°   Ceiling: 9000
Heat Index: 33°   Visibility: 4mi
Dew Point: 32°   Wind: 0mph
Humidity: 96%   Direction: NA
Pressure: 30.19"   Gusts: NA
Location:  47.89°N, 117.36°W
Report Text: KDEW 260353Z AUTO 00000KT 4SM BR SCT010 OVC090 01/00 A3019 RMK AO2 SLP243 T00060000
Loading
Personal Weather Stations






























Interactive Weather Map New forecast layout! Learn more

10-Day Weather Forecast

Advertisements
Track Severe Weather on mobile